createdAt,value
2022-12-01T00:01:53.435Z,10.40
2022-12-01T00:04:55.020Z,9.70
2022-12-01T00:07:57.805Z,9.93
2022-12-01T00:11:09.952Z,10.67
2022-12-01T00:14:11.629Z,11.43
2022-12-01T00:17:13.166Z,12.20
2022-12-01T00:20:15.445Z,11.27
2022-12-01T00:23:17.053Z,10.60
2022-12-01T00:26:19.443Z,11.10
2022-12-01T00:29:21.018Z,8.90
2022-12-01T00:32:24.507Z,8.10
2022-12-01T00:35:26.087Z,9.90
2022-12-01T00:38:28.052Z,9.20
2022-12-01T00:41:29.666Z,9.30
2022-12-01T00:44:31.245Z,8.53
2022-12-01T00:47:32.888Z,10.30
2022-12-01T00:50:34.478Z,9.20
2022-12-01T00:53:36.117Z,8.57
2022-12-01T00:56:37.660Z,7.80
2022-12-01T00:59:39.295Z,7.97
2022-12-01T01:02:41.032Z,7.57
2022-12-01T01:05:42.957Z,8.10
2022-12-01T01:08:44.563Z,9.60
2022-12-01T01:11:46.271Z,10.50
2022-12-01T01:14:47.932Z,10.47
2022-12-01T01:17:49.543Z,10.53
2022-12-01T01:20:58.256Z,10.03
2022-12-01T01:24:00.132Z,7.70
2022-12-01T01:27:01.742Z,8.33
2022-12-01T01:30:03.528Z,8.17
2022-12-01T01:33:05.142Z,6.80
2022-12-01T01:36:06.962Z,6.17
2022-12-01T01:39:08.604Z,6.33
2022-12-01T01:42:12.903Z,5.77
2022-12-01T01:45:19.973Z,5.73
2022-12-01T01:48:21.605Z,5.77
2022-12-01T01:51:25.585Z,4.57
2022-12-01T01:54:29.343Z,4.40
2022-12-01T01:57:31.839Z,4.20
2022-12-01T02:00:33.586Z,3.90
2022-12-01T02:03:35.761Z,3.93
2022-12-01T02:06:37.408Z,4.03
2022-12-01T02:09:38.958Z,3.87
2022-12-01T02:12:48.583Z,4.00
2022-12-01T02:15:50.156Z,3.27
2022-12-01T02:19:10.640Z,3.43
2022-12-01T02:22:27.604Z,3.80
2022-12-01T02:25:47.838Z,3.30
2022-12-01T02:29:07.826Z,3.73
2022-12-01T02:32:12.370Z,3.90
2022-12-01T02:35:14.013Z,3.87
2022-12-01T02:38:15.606Z,3.33
2022-12-01T02:41:20.419Z,3.53
2022-12-01T02:44:27.673Z,3.30
2022-12-01T02:47:29.971Z,3.97
2022-12-01T02:50:32.817Z,4.33
2022-12-01T02:53:34.634Z,6.00
2022-12-01T02:56:36.247Z,6.17
2022-12-01T02:59:37.948Z,4.10
2022-12-01T03:03:04.239Z,3.60
2022-12-01T03:06:20.446Z,3.30
2022-12-01T03:09:40.707Z,3.53
2022-12-01T03:13:00.916Z,3.43
2022-12-01T03:16:05.725Z,2.97
2022-12-01T03:19:10.089Z,3.43
2022-12-01T03:22:17.168Z,3.50
2022-12-01T03:25:19.927Z,4.30
2022-12-01T03:28:23.845Z,4.90
2022-12-01T03:31:27.565Z,5.10
2022-12-01T03:34:29.164Z,5.03
2022-12-01T03:38:00.358Z,4.70
2022-12-01T03:41:06.211Z,5.97
2022-12-01T03:44:20.754Z,5.60
2022-12-01T03:47:29.527Z,3.87
2022-12-01T03:50:33.115Z,4.10
2022-12-01T03:53:55.018Z,3.30
2022-12-01T03:56:59.601Z,3.20
2022-12-01T04:00:01.450Z,3.53
2022-12-01T04:03:05.902Z,2.90
2022-12-01T04:06:08.040Z,3.70
2022-12-01T04:09:09.596Z,4.07
2022-12-01T04:12:32.844Z,3.93
2022-12-01T04:15:34.410Z,3.50
2022-12-01T04:18:36.062Z,5.83
2022-12-01T04:21:37.688Z,5.90
2022-12-01T04:24:39.320Z,4.93
2022-12-01T04:27:40.991Z,4.00
2022-12-01T04:30:42.545Z,4.10
2022-12-01T04:33:44.210Z,4.00
2022-12-01T04:36:45.889Z,4.87
2022-12-01T04:39:47.891Z,5.50
2022-12-01T04:42:49.694Z,9.03
2022-12-01T04:45:51.314Z,10.13
2022-12-01T04:48:52.942Z,9.27
2022-12-01T04:51:54.628Z,7.40
2022-12-01T04:54:56.181Z,6.03
2022-12-01T04:57:58.169Z,6.30
2022-12-01T05:01:10.321Z,6.23
2022-12-01T05:04:13.335Z,6.70
2022-12-01T05:07:14.997Z,7.33
2022-12-01T05:10:19.134Z,7.43
2022-12-01T05:13:21.041Z,6.70
2022-12-01T05:16:26.967Z,7.10
2022-12-01T05:19:50.323Z,6.70
2022-12-01T05:23:05.357Z,8.50
2022-12-01T05:26:08.456Z,7.27
2022-12-01T05:29:14.383Z,9.03
2022-12-01T05:32:16.036Z,14.03
2022-12-01T05:35:17.756Z,31.00
2022-12-01T05:38:19.712Z,17.27
2022-12-01T05:41:21.537Z,13.27
2022-12-01T05:44:26.030Z,12.70
2022-12-01T05:47:27.715Z,12.53
2022-12-01T05:50:30.567Z,15.20
2022-12-01T05:53:32.140Z,11.03
2022-12-01T05:56:33.795Z,22.93
2022-12-01T05:59:35.366Z,21.47
2022-12-01T06:02:37.161Z,17.83
2022-12-01T06:05:38.731Z,20.30
2022-12-01T06:08:40.366Z,14.27
2022-12-01T06:11:41.998Z,13.43
2022-12-01T06:14:43.706Z,11.93
2022-12-01T06:17:45.305Z,12.20
2022-12-01T06:20:46.962Z,15.70
2022-12-01T06:23:48.515Z,14.77
2022-12-01T06:26:50.136Z,13.93
2022-12-01T06:29:51.999Z,15.20
2022-12-01T06:32:53.814Z,12.97
2022-12-01T06:36:02.350Z,17.63
2022-12-01T06:39:10.984Z,14.30
2022-12-01T06:42:12.660Z,13.83
2022-12-01T06:45:14.293Z,17.67
2022-12-01T06:48:17.179Z,13.90
2022-12-01T06:51:18.791Z,15.23
2022-12-01T06:54:21.418Z,18.27
2022-12-01T06:57:23.030Z,19.43
2022-12-01T07:00:24.963Z,22.87
2022-12-01T07:03:26.794Z,19.93
2022-12-01T07:06:29.710Z,18.37
2022-12-01T07:09:31.432Z,18.60
2022-12-01T07:12:33.009Z,18.67
2022-12-01T07:15:34.632Z,22.47
2022-12-01T07:18:37.135Z,24.43
2022-12-01T07:21:38.733Z,91.07
2022-12-01T07:24:40.355Z,37.33
2022-12-01T07:27:41.928Z,22.37
2022-12-01T07:30:43.634Z,29.80
2022-12-01T07:33:45.213Z,28.80
2022-12-01T07:36:46.895Z,15.27
2022-12-01T07:39:49.178Z,20.03
2022-12-01T07:42:51.094Z,11.00
2022-12-01T07:45:52.769Z,17.10
2022-12-01T07:48:55.112Z,10.47
2022-12-01T07:51:56.723Z,10.93
2022-12-01T07:54:58.392Z,8.47
2022-12-01T07:58:00.874Z,12.03
2022-12-01T08:01:06.166Z,33.50
2022-12-01T08:04:07.815Z,20.37
2022-12-01T08:07:09.399Z,13.33
2022-12-01T08:10:11.250Z,16.53
2022-12-01T08:13:17.173Z,16.40
2022-12-01T08:16:20.114Z,14.83
2022-12-01T08:19:21.723Z,15.57
2022-12-01T08:22:23.386Z,14.70
2022-12-01T08:25:24.984Z,30.17
2022-12-01T08:28:26.584Z,15.87
2022-12-01T08:31:32.176Z,18.97
2022-12-01T08:34:37.438Z,25.57
2022-12-01T08:37:39.075Z,21.53
2022-12-01T08:40:40.712Z,24.67
2022-12-01T08:44:00.305Z,16.77
2022-12-01T08:47:02.539Z,26.63
2022-12-01T08:50:05.092Z,25.67
2022-12-01T08:53:06.672Z,23.50
2022-12-01T08:56:10.718Z,25.10
2022-12-01T08:59:12.285Z,18.70
2022-12-01T09:02:15.678Z,31.97
2022-12-01T09:05:17.332Z,26.17
2022-12-01T09:08:35.089Z,22.73
2022-12-01T09:11:36.754Z,27.60
2022-12-01T09:14:39.540Z,28.03
2022-12-01T09:17:41.144Z,26.70
2022-12-01T09:20:42.796Z,28.13
2022-12-01T09:23:44.607Z,24.10
2022-12-01T09:26:46.197Z,22.63
2022-12-01T09:29:48.032Z,21.60
2022-12-01T09:32:49.954Z,16.53
2022-12-01T09:35:54.491Z,23.20
2022-12-01T09:38:56.327Z,27.80
2022-12-01T09:42:06.157Z,27.77
2022-12-01T09:45:17.857Z,23.80
2022-12-01T09:48:43.413Z,23.40
2022-12-01T09:51:45.049Z,18.90
2022-12-01T09:54:47.354Z,17.73
2022-12-01T09:57:49.914Z,16.27
2022-12-01T10:00:52.285Z,14.73
2022-12-01T10:03:57.471Z,17.03
2022-12-01T10:07:01.002Z,35.43
2022-12-01T10:10:05.044Z,51.00
2022-12-01T10:13:15.510Z,38.47
2022-12-01T10:16:21.642Z,17.23
2022-12-01T10:19:33.095Z,14.40
2022-12-01T10:22:53.098Z,14.87
2022-12-01T10:25:59.501Z,14.73
2022-12-01T10:29:10.073Z,13.33
2022-12-01T10:32:16.911Z,14.80
2022-12-01T10:35:19.772Z,14.73
2022-12-01T10:38:26.966Z,11.57
2022-12-01T10:41:30.060Z,13.50
2022-12-01T10:44:31.651Z,12.13
2022-12-01T10:47:33.505Z,8.27
2022-12-01T10:50:35.860Z,7.27
2022-12-01T10:53:37.427Z,9.87
2022-12-01T10:56:43.733Z,10.23
2022-12-01T10:59:45.280Z,8.07
2022-12-01T11:02:49.944Z,9.67
2022-12-01T11:05:55.635Z,10.40
2022-12-01T11:09:00.000Z,9.27
2022-12-01T11:12:02.674Z,9.67
2022-12-01T11:15:04.992Z,8.83
2022-12-01T11:18:19.749Z,10.33
2022-12-01T11:21:28.118Z,14.17
2022-12-01T11:24:29.779Z,20.53
2022-12-01T11:27:36.480Z,34.23
2022-12-01T11:30:38.142Z,57.40
2022-12-01T11:33:44.264Z,78.07
2022-12-01T11:36:47.256Z,130.83
2022-12-01T11:39:49.725Z,104.13
2022-12-01T11:42:53.317Z,30.80
2022-12-01T11:45:56.136Z,13.63
2022-12-01T11:48:58.845Z,10.80
2022-12-01T11:52:16.335Z,9.50
2022-12-01T11:55:22.927Z,9.77
2022-12-01T11:58:24.603Z,13.37
2022-12-01T12:01:32.184Z,14.33
2022-12-01T12:04:36.968Z,14.83
2022-12-01T12:07:49.741Z,11.37
2022-12-01T12:11:00.649Z,14.10
2022-12-01T12:14:02.252Z,10.90
2022-12-01T12:17:06.852Z,9.07
2022-12-01T12:20:27.528Z,10.30
2022-12-01T12:23:31.906Z,10.00
2022-12-01T12:26:42.051Z,13.33
2022-12-01T12:29:49.920Z,10.97
2022-12-01T12:33:09.980Z,11.53
2022-12-01T12:36:30.263Z,11.97
2022-12-01T12:39:35.046Z,13.20
2022-12-01T12:42:43.864Z,15.70
2022-12-01T12:46:04.506Z,13.43
2022-12-01T12:49:24.953Z,11.23
2022-12-01T12:52:29.943Z,14.90
2022-12-01T12:55:39.146Z,18.97
2022-12-01T12:58:53.312Z,14.00
2022-12-01T13:02:10.037Z,14.27
2022-12-01T13:05:23.953Z,17.50
2022-12-01T13:08:28.661Z,19.77
2022-12-01T13:11:36.990Z,16.63
2022-12-01T13:14:59.417Z,13.50
2022-12-01T13:18:22.488Z,23.67
2022-12-01T13:21:24.193Z,30.87
2022-12-01T13:24:28.760Z,28.90
2022-12-01T13:27:33.204Z,52.90
2022-12-01T13:30:34.902Z,55.97
2022-12-01T13:33:37.474Z,61.10
2022-12-01T13:36:47.758Z,34.80
2022-12-01T13:39:53.820Z,21.17
2022-12-01T13:43:15.957Z,21.10
2022-12-01T13:46:22.529Z,13.30
2022-12-01T13:49:43.753Z,15.87
2022-12-01T13:52:49.165Z,14.97
2022-12-01T13:55:56.893Z,18.83
2022-12-01T13:58:58.495Z,18.70
2022-12-01T14:02:07.631Z,21.07
2022-12-01T14:05:25.209Z,14.00
2022-12-01T14:08:30.996Z,14.47
2022-12-01T14:11:34.210Z,17.83
2022-12-01T14:14:37.451Z,18.37
2022-12-01T14:17:39.086Z,17.03
2022-12-01T14:20:45.584Z,17.23
2022-12-01T14:24:04.972Z,17.07
2022-12-01T14:27:07.147Z,15.13
2022-12-01T14:30:27.448Z,14.93
2022-12-01T14:33:47.703Z,16.73
2022-12-01T14:36:49.379Z,17.23
2022-12-01T14:39:56.498Z,15.80
2022-12-01T14:43:17.306Z,19.67
2022-12-01T14:46:22.545Z,15.83
2022-12-01T14:49:26.231Z,15.87
2022-12-01T14:52:27.800Z,15.73
2022-12-01T14:55:40.608Z,17.03
2022-12-01T14:58:50.998Z,48.53
2022-12-01T15:01:54.325Z,21.87
2022-12-01T15:05:12.910Z,24.90
2022-12-01T15:08:49.236Z,21.67
2022-12-01T15:11:53.869Z,25.23
2022-12-01T15:14:55.493Z,24.70
2022-12-01T15:18:01.644Z,30.33
2022-12-01T15:21:32.420Z,31.00
2022-12-01T15:24:34.188Z,30.47
2022-12-01T15:27:35.769Z,40.90
2022-12-01T15:30:37.683Z,31.07
2022-12-01T15:33:43.992Z,19.03
2022-12-01T15:36:46.200Z,15.93
2022-12-01T15:39:57.725Z,25.23
2022-12-01T15:43:14.701Z,16.47
2022-12-01T15:46:17.754Z,21.73
2022-12-01T15:49:30.260Z,24.03
2022-12-01T15:52:32.535Z,25.50
2022-12-01T15:55:35.328Z,22.73
2022-12-01T15:58:41.253Z,25.87
2022-12-01T16:01:43.728Z,26.37
2022-12-01T16:04:45.811Z,20.07
2022-12-01T16:08:12.678Z,22.13
2022-12-01T16:11:16.942Z,14.03
2022-12-01T16:14:22.707Z,25.17
2022-12-01T16:17:24.501Z,104.63
2022-12-01T16:20:33.831Z,53.97
2022-12-01T16:23:35.461Z,50.53
2022-12-01T16:26:37.036Z,35.50
2022-12-01T16:29:47.804Z,34.70
2022-12-01T16:32:49.810Z,29.77
2022-12-01T16:35:52.268Z,14.87
2022-12-01T16:38:53.857Z,16.40
2022-12-01T16:41:58.837Z,14.13
2022-12-01T16:45:00.511Z,18.63
2022-12-01T16:48:07.805Z,19.87
2022-12-01T16:51:14.588Z,13.17
2022-12-01T16:54:16.338Z,13.57
2022-12-01T16:57:18.035Z,16.17
2022-12-01T17:00:19.803Z,15.87
2022-12-01T17:03:25.444Z,18.20
2022-12-01T17:06:27.079Z,18.83
2022-12-01T17:09:28.850Z,22.90
2022-12-01T17:12:30.448Z,20.47
2022-12-01T17:15:32.072Z,19.90
2022-12-01T17:18:37.435Z,24.83
2022-12-01T17:21:38.980Z,23.33
2022-12-01T17:24:40.676Z,31.07
2022-12-01T17:27:43.882Z,29.53
2022-12-01T17:30:45.769Z,23.30
2022-12-01T17:33:47.484Z,21.63
2022-12-01T17:36:49.109Z,11.60
2022-12-01T17:39:50.761Z,14.47
2022-12-01T17:42:52.402Z,12.47
2022-12-01T17:45:53.987Z,21.03
2022-12-01T17:48:56.089Z,19.13
2022-12-01T17:51:57.675Z,27.57
2022-12-01T17:54:59.301Z,26.93
2022-12-01T17:58:01.052Z,32.30
2022-12-01T18:01:02.713Z,28.73
2022-12-01T18:04:04.451Z,24.67
2022-12-01T18:07:06.048Z,25.53
2022-12-01T18:10:07.830Z,24.80
2022-12-01T18:13:09.445Z,22.60
2022-12-01T18:16:12.801Z,21.50
2022-12-01T18:19:14.857Z,21.37
2022-12-01T18:22:16.481Z,17.57
2022-12-01T18:25:18.051Z,18.33
2022-12-01T18:28:19.738Z,17.47
2022-12-01T18:31:21.442Z,14.27
2022-12-01T18:34:23.642Z,20.30
2022-12-01T18:37:25.321Z,24.17
2022-12-01T18:40:26.959Z,20.93
2022-12-01T18:43:29.437Z,17.67
2022-12-01T18:46:31.350Z,25.70
2022-12-01T18:49:33.093Z,30.00
2022-12-01T18:55:57.370Z,23.43
2022-12-01T18:59:03.397Z,31.20
2022-12-01T19:02:05.053Z,17.00
2022-12-01T19:05:06.811Z,21.00
2022-12-01T19:08:08.383Z,19.40
2022-12-01T19:11:10.025Z,18.33
2022-12-01T19:14:16.588Z,20.40
2022-12-01T19:17:18.696Z,22.97
2022-12-01T19:20:20.364Z,16.87
2022-12-01T19:23:22.386Z,21.07
2022-12-01T19:26:26.008Z,18.50
2022-12-01T19:29:28.443Z,15.97
2022-12-01T19:32:33.820Z,18.33
2022-12-01T19:35:35.532Z,15.83
2022-12-01T19:38:37.568Z,18.20
2022-12-01T19:41:39.178Z,19.47
2022-12-01T19:44:40.756Z,18.37
2022-12-01T19:47:42.417Z,22.13
2022-12-01T19:50:44.032Z,18.63
2022-12-01T19:53:45.639Z,22.70
2022-12-01T19:56:49.122Z,30.97
2022-12-01T19:59:50.839Z,20.87
2022-12-01T20:02:52.543Z,18.77
2022-12-01T20:05:54.156Z,20.07
2022-12-01T20:08:56.795Z,17.93
2022-12-01T20:11:58.408Z,15.87
2022-12-01T20:15:00.844Z,19.97
2022-12-01T20:18:02.457Z,19.33
2022-12-01T20:21:04.972Z,18.73
2022-12-01T20:24:07.566Z,26.80
2022-12-01T20:27:09.148Z,28.43
2022-12-01T20:30:11.248Z,30.90
2022-12-01T20:33:12.900Z,21.63
2022-12-01T20:36:14.620Z,15.43
2022-12-01T20:39:22.976Z,20.90
2022-12-01T20:42:25.595Z,20.47
2022-12-01T20:45:27.566Z,18.27
2022-12-01T20:48:31.887Z,11.47
2022-12-01T20:52:00.121Z,12.07
2022-12-01T20:55:04.140Z,10.60
2022-12-01T20:58:08.686Z,12.90
2022-12-01T21:01:15.707Z,10.00
2022-12-01T21:04:19.766Z,9.70
2022-12-01T21:07:21.369Z,11.47
2022-12-01T21:10:23.122Z,12.40
2022-12-01T21:13:47.109Z,10.23
2022-12-01T21:16:54.458Z,8.93
2022-12-01T21:20:01.742Z,10.83
2022-12-01T21:23:10.771Z,11.40
2022-12-01T21:26:15.765Z,10.53
2022-12-01T21:29:17.348Z,9.47
2022-12-01T21:32:23.014Z,11.13
2022-12-01T21:35:27.128Z,11.33
2022-12-01T21:38:31.508Z,22.33
2022-12-01T21:41:36.693Z,11.40
2022-12-01T21:44:40.539Z,9.20
2022-12-01T21:47:42.164Z,8.47
2022-12-01T21:50:46.116Z,12.77
2022-12-01T21:53:56.543Z,8.43
2022-12-01T21:57:01.006Z,6.53
2022-12-01T22:00:22.544Z,6.90
2022-12-01T22:03:30.121Z,5.80
2022-12-01T22:06:40.823Z,8.40
2022-12-01T22:09:46.052Z,6.63
2022-12-01T22:12:48.560Z,8.40
2022-12-01T22:15:53.911Z,7.33
2022-12-01T22:19:02.150Z,6.93
2022-12-01T22:22:10.223Z,5.40
2022-12-01T22:25:27.385Z,4.87
2022-12-01T22:28:32.206Z,5.40
2022-12-01T22:31:34.096Z,5.87
2022-12-01T22:34:37.486Z,6.17
2022-12-01T22:37:46.462Z,5.90
2022-12-01T22:40:53.835Z,5.30
2022-12-01T22:43:55.993Z,5.90
2022-12-01T22:47:00.474Z,8.50
2022-12-01T22:50:02.371Z,7.17
2022-12-01T22:53:12.213Z,9.47
2022-12-01T22:56:29.274Z,6.93
2022-12-01T22:59:35.249Z,6.77
2022-12-01T23:02:36.959Z,6.70
2022-12-01T23:05:38.659Z,6.63
2022-12-01T23:08:40.264Z,5.07
2022-12-01T23:11:45.458Z,6.73
2022-12-01T23:14:51.608Z,7.57
2022-12-01T23:17:53.652Z,9.10
2022-12-01T23:20:56.579Z,8.00
2022-12-01T23:23:58.216Z,6.37
2022-12-01T23:26:59.787Z,7.53
2022-12-01T23:30:01.398Z,5.53
2022-12-01T23:33:05.784Z,5.27
2022-12-01T23:36:18.751Z,12.67
2022-12-01T23:39:26.376Z,52.23
2022-12-01T23:42:27.986Z,5.47
2022-12-01T23:45:29.597Z,6.60
2022-12-01T23:48:36.324Z,7.60
2022-12-01T23:51:39.828Z,6.27
2022-12-01T23:54:41.402Z,6.50
2022-12-01T23:57:42.989Z,8.97
